Inicio METAR Ruta Wind Satelite

Informe Meteorológico

Fecha: 2021/09/21 16:28:35 Local
2021.09.21 21:28 UTC


Operación:VFR
SKBQ 212100Z 03007KT 350V060 9999 VCSH SCT015CB BKN200 30/25 Q1007 NOSIG RMK CB VCSH/W A2974 =

SKBQ 212000Z 12004KT 090V190 9999 VCSH SCT015TCU SCT200 32/26 Q1008 NOSIG RMK TCU VCSH/N A2977
SKBQ 211900Z VRB02KT 9999 VCSH SCT015 SCT200 33/25 Q1009 NOSIG RMK VCSH/N A2979
SKBQ 211800Z 11003KT 060V200 9999 VCSH SCT015 SCT200 31/25 Q1010 NOSIG RMK VCSH/N A2982
SKBQ 211700Z 18006KT 110V200 9999 SCT015TCU BKN200 31/25 Q1011 NOSIG RMK TCU/N/W A2987
SKBQ 211500Z 18007KT 120V200 9999 SCT012 BKN200 30/25 Q1012 NOSIG RMK A2989

2021/09/21 18:55
TAF SKBQ 211630Z 2118/2218 02005KT 9999 SCT015
TEMPO 2119/2121 RA SCT010CB SCT070 PROB40
TEMPO 2210/2212 5000 DZ BR BKN010 TX32/2216Z TN26/2210Z